createdAt,value
2018-05-17T00:02:14.825Z,6.63
2018-05-17T00:04:42.287Z,5.80
2018-05-17T00:07:09.704Z,7.03
2018-05-17T00:09:37.964Z,7.07
2018-05-17T00:12:05.420Z,5.97
2018-05-17T00:14:32.829Z,7.50
2018-05-17T00:17:00.370Z,6.33
2018-05-17T00:19:27.782Z,7.20
2018-05-17T00:21:55.199Z,5.87
2018-05-17T00:24:22.620Z,6.20
2018-05-17T00:26:50.812Z,6.13
2018-05-17T00:29:19.004Z,6.37
2018-05-17T00:31:47.211Z,7.03
2018-05-17T00:34:14.650Z,6.53
2018-05-17T00:36:42.860Z,6.30
2018-05-17T00:39:10.272Z,7.93
2018-05-17T00:41:37.685Z,6.10
2018-05-17T00:44:05.860Z,6.77
2018-05-17T00:46:34.044Z,7.40
2018-05-17T00:49:03.149Z,7.40
2018-05-17T00:51:31.336Z,6.40
2018-05-17T00:53:59.517Z,6.60
2018-05-17T00:56:26.946Z,8.30
2018-05-17T00:58:54.427Z,7.17
2018-05-17T01:01:21.913Z,8.43
2018-05-17T01:03:49.340Z,7.63
2018-05-17T01:06:16.747Z,8.33
2018-05-17T01:08:44.269Z,8.80
2018-05-17T01:11:12.431Z,7.80
2018-05-17T01:13:40.616Z,9.00
2018-05-17T01:16:08.797Z,8.80
2018-05-17T01:18:36.973Z,8.10
2018-05-17T01:21:04.481Z,8.60
2018-05-17T01:23:31.888Z,8.00
2018-05-17T01:25:59.393Z,8.10
2018-05-17T01:28:27.701Z,7.23
2018-05-17T01:30:55.116Z,7.70
2018-05-17T01:33:22.533Z,8.50
2018-05-17T01:35:49.966Z,8.30
2018-05-17T01:38:32.252Z,7.53
2018-05-17T01:40:59.700Z,8.30
2018-05-17T01:43:27.105Z,7.97
2018-05-17T01:45:54.541Z,8.67
2018-05-17T01:48:21.964Z,9.20
2018-05-17T01:50:49.476Z,10.00
2018-05-17T01:53:16.940Z,9.13
2018-05-17T01:55:44.376Z,9.30
2018-05-17T01:58:12.560Z,8.40
2018-05-17T02:00:40.741Z,8.20
2018-05-17T02:03:08.155Z,9.13
2018-05-17T02:05:35.568Z,8.00
2018-05-17T02:08:02.990Z,8.70
2018-05-17T02:10:30.416Z,8.40
2018-05-17T02:12:58.592Z,9.43
2018-05-17T02:15:26.012Z,8.20
2018-05-17T02:17:53.424Z,10.00
2018-05-17T02:20:20.832Z,9.77
2018-05-17T02:22:48.257Z,9.10
2018-05-17T02:25:15.808Z,9.23
2018-05-17T02:27:43.227Z,10.00
2018-05-17T02:30:10.722Z,10.70
2018-05-17T02:32:38.171Z,10.00
2018-05-17T02:35:06.350Z,9.40
2018-05-17T02:37:35.468Z,9.87
2018-05-17T02:40:02.905Z,9.00
2018-05-17T02:42:30.531Z,9.83
2018-05-17T02:44:57.942Z,9.10
2018-05-17T02:47:25.375Z,9.07
2018-05-17T02:49:52.822Z,8.80
2018-05-17T02:52:20.249Z,10.03
2018-05-17T02:54:47.763Z,9.33
2018-05-17T02:57:15.241Z,10.00
2018-05-17T02:59:42.655Z,10.30
2018-05-17T03:02:10.072Z,10.23
2018-05-17T03:04:37.488Z,9.80
2018-05-17T03:07:06.317Z,10.30
2018-05-17T03:09:35.447Z,10.30
2018-05-17T03:12:02.861Z,9.83
2018-05-17T03:14:30.281Z,9.67
2018-05-17T03:16:57.761Z,8.63
2018-05-17T03:19:25.200Z,9.63
2018-05-17T03:21:52.680Z,9.60
2018-05-17T03:24:20.156Z,9.37
2018-05-17T03:26:47.580Z,11.10
2018-05-17T03:29:15.146Z,10.20
2018-05-17T03:31:42.563Z,11.80
2018-05-17T03:34:09.990Z,10.93
2018-05-17T03:36:37.511Z,10.33
2018-05-17T03:39:04.934Z,9.90
2018-05-17T03:41:32.344Z,9.93
2018-05-17T03:43:59.762Z,10.40
2018-05-17T03:46:27.953Z,10.80
2018-05-17T03:48:55.371Z,12.03
2018-05-17T03:51:22.784Z,11.97
2018-05-17T03:53:50.207Z,11.77
2018-05-17T03:56:17.639Z,12.00
2018-05-17T03:58:45.076Z,10.47
2018-05-17T04:01:24.270Z,11.20
2018-05-17T04:04:03.621Z,10.53
2018-05-17T04:06:42.409Z,12.23
2018-05-17T04:09:09.838Z,11.13
2018-05-17T04:11:37.244Z,12.57
2018-05-17T04:14:04.683Z,13.40
2018-05-17T04:16:32.132Z,13.10
2018-05-17T04:18:59.547Z,14.60
2018-05-17T04:21:26.968Z,13.60
2018-05-17T04:23:54.396Z,13.50
2018-05-17T04:26:22.622Z,14.30
2018-05-17T04:28:50.036Z,15.20
2018-05-17T04:31:17.574Z,12.60
2018-05-17T04:33:45.047Z,14.47
2018-05-17T04:36:12.512Z,15.63
2018-05-17T04:38:39.974Z,14.20
2018-05-17T04:41:07.412Z,14.60
2018-05-17T04:43:34.824Z,13.90
2018-05-17T04:46:02.285Z,13.13
2018-05-17T04:48:29.700Z,14.10
2018-05-17T04:50:57.121Z,13.97
2018-05-17T04:53:24.549Z,13.60
2018-05-17T04:55:52.756Z,12.43
2018-05-17T04:58:20.336Z,12.43
2018-05-17T05:00:48.544Z,14.87
2018-05-17T05:03:15.997Z,12.87
2018-05-17T05:05:43.425Z,12.50
2018-05-17T05:08:11.627Z,14.03
2018-05-17T05:10:39.801Z,12.70
2018-05-17T05:13:08.514Z,13.20
2018-05-17T05:15:36.014Z,14.13
2018-05-17T05:18:03.419Z,13.40
2018-05-17T05:20:32.352Z,13.57
2018-05-17T05:23:00.533Z,13.63
2018-05-17T05:25:28.717Z,13.70
2018-05-17T05:27:56.936Z,13.83
2018-05-17T05:30:24.393Z,13.10
2018-05-17T05:32:51.894Z,13.67
2018-05-17T05:35:19.316Z,14.13
2018-05-17T05:37:47.537Z,13.40
2018-05-17T05:40:15.003Z,13.00
2018-05-17T05:42:42.425Z,14.07
2018-05-17T05:45:10.657Z,12.07
2018-05-17T05:47:39.122Z,12.00
2018-05-17T05:50:07.302Z,12.67
2018-05-17T05:52:35.495Z,12.60
2018-05-17T05:55:03.675Z,12.37
2018-05-17T05:57:31.888Z,10.70
2018-05-17T05:59:59.309Z,10.67
2018-05-17T06:02:26.976Z,9.53
2018-05-17T06:04:54.390Z,10.43
2018-05-17T06:07:21.814Z,10.17
2018-05-17T06:09:49.330Z,9.20
2018-05-17T06:12:17.503Z,9.13
2018-05-17T06:14:44.926Z,8.93
2018-05-17T06:17:12.346Z,8.40
2018-05-17T06:19:39.756Z,9.43
2018-05-17T06:22:07.167Z,8.37
2018-05-17T06:24:35.354Z,8.00
2018-05-17T06:27:03.539Z,8.70
2018-05-17T06:29:31.724Z,9.90
2018-05-17T06:31:59.932Z,9.67
2018-05-17T06:34:27.410Z,8.77
2018-05-17T06:36:54.834Z,8.70
2018-05-17T06:39:22.251Z,9.40
2018-05-17T06:41:49.660Z,8.97
2018-05-17T06:44:17.098Z,8.40
2018-05-17T06:46:44.536Z,7.83
2018-05-17T06:49:11.953Z,8.80
2018-05-17T06:51:39.363Z,8.27
2018-05-17T06:54:06.790Z,7.43
2018-05-17T06:56:34.215Z,7.53
2018-05-17T06:59:01.685Z,8.00
2018-05-17T07:01:29.162Z,8.40
2018-05-17T07:03:56.614Z,9.37
2018-05-17T07:06:24.092Z,8.50
2018-05-17T07:08:52.310Z,9.13
2018-05-17T07:11:19.723Z,8.97
2018-05-17T07:13:47.894Z,8.77
2018-05-17T07:16:15.407Z,8.60
2018-05-17T07:18:43.255Z,9.37
2018-05-17T07:21:10.220Z,9.33
2018-05-17T07:23:37.647Z,8.83
2018-05-17T07:26:05.065Z,8.80
2018-05-17T07:28:32.496Z,7.90
2018-05-17T07:30:59.926Z,8.30
2018-05-17T07:33:27.382Z,9.60
2018-05-17T07:35:54.793Z,8.63
2018-05-17T07:38:22.212Z,9.80
2018-05-17T07:40:49.686Z,7.97
2018-05-17T07:43:17.147Z,9.30
2018-05-17T07:45:44.587Z,9.20
2018-05-17T07:48:12.188Z,8.50
2018-05-17T07:50:40.657Z,8.40
2018-05-17T07:53:09.752Z,8.90
2018-05-17T07:55:38.070Z,9.20
2018-05-17T07:58:05.404Z,8.53
2018-05-17T08:00:32.843Z,9.03
2018-05-17T08:03:00.262Z,8.40
2018-05-17T08:05:28.450Z,9.00
2018-05-17T08:07:56.632Z,8.93
2018-05-17T08:10:24.804Z,7.97
2018-05-17T08:12:53.033Z,7.40
2018-05-17T08:15:20.463Z,8.57
2018-05-17T08:17:47.880Z,8.40
2018-05-17T08:20:15.334Z,8.63
2018-05-17T08:22:42.797Z,8.00
2018-05-17T08:25:10.978Z,8.97
2018-05-17T08:27:38.392Z,9.93
2018-05-17T08:30:05.855Z,9.70
2018-05-17T08:32:33.261Z,10.03
2018-05-17T08:35:01.443Z,9.83
2018-05-17T08:37:28.859Z,8.50
2018-05-17T08:39:56.260Z,9.60
2018-05-17T08:42:23.697Z,9.20
2018-05-17T08:44:51.160Z,8.47
2018-05-17T08:47:18.617Z,9.10
2018-05-17T08:49:46.098Z,8.77
2018-05-17T08:52:13.523Z,8.70
2018-05-17T08:54:40.938Z,8.30
2018-05-17T08:57:08.400Z,7.70
2018-05-17T08:59:35.877Z,9.33
2018-05-17T09:02:03.296Z,8.60
2018-05-17T09:04:31.516Z,8.90
2018-05-17T09:06:59.670Z,9.30
2018-05-17T09:09:27.092Z,8.00
2018-05-17T09:11:54.505Z,9.50
2018-05-17T09:14:21.915Z,9.23
2018-05-17T09:16:49.345Z,8.38
2018-05-17T09:19:16.776Z,8.10
2018-05-17T09:21:44.260Z,8.43
2018-05-17T09:24:11.671Z,7.77
2018-05-17T09:26:40.786Z,8.70
2018-05-17T09:29:09.003Z,9.00
2018-05-17T09:31:36.392Z,9.10
2018-05-17T09:34:03.823Z,8.33
2018-05-17T09:36:31.249Z,8.77
2018-05-17T09:38:58.660Z,8.80
2018-05-17T09:41:26.092Z,8.60
2018-05-17T09:43:53.506Z,7.90
2018-05-17T09:46:20.924Z,8.20
2018-05-17T09:48:48.349Z,8.23
2018-05-17T09:51:15.808Z,9.53
2018-05-17T09:53:43.969Z,7.97
2018-05-17T09:56:12.177Z,8.30
2018-05-17T09:58:39.595Z,8.27
2018-05-17T10:01:07.105Z,7.87
2018-05-17T10:03:35.289Z,7.80
2018-05-17T10:06:03.475Z,8.63
2018-05-17T10:08:30.913Z,9.47
2018-05-17T10:10:58.427Z,9.70
2018-05-17T10:13:26.589Z,9.20
2018-05-17T10:15:54.772Z,9.57
2018-05-17T10:18:22.942Z,10.40
2018-05-17T10:20:50.365Z,9.80
2018-05-17T10:23:17.788Z,10.37
2018-05-17T10:25:46.007Z,10.53
2018-05-17T10:28:13.468Z,10.37
2018-05-17T10:30:42.457Z,9.27
2018-05-17T10:33:11.591Z,9.10
2018-05-17T10:35:39.782Z,9.57
2018-05-17T10:38:07.209Z,9.70
2018-05-17T10:40:37.579Z,10.97
2018-05-17T10:43:04.997Z,10.47
2018-05-17T10:45:33.187Z,10.90
2018-05-17T10:48:00.617Z,12.07
2018-05-17T10:50:28.024Z,11.93
2018-05-17T10:52:55.457Z,11.50
2018-05-17T10:55:22.877Z,11.07
2018-05-17T10:57:51.044Z,9.77
2018-05-17T11:00:18.668Z,11.40
2018-05-17T11:02:46.841Z,13.13
2018-05-17T11:05:14.331Z,12.60
2018-05-17T11:07:42.904Z,13.60
2018-05-17T11:10:10.351Z,11.03
2018-05-17T11:12:37.760Z,12.07
2018-05-17T11:15:05.318Z,12.83
2018-05-17T11:17:32.910Z,13.13
2018-05-17T11:20:00.373Z,13.97
2018-05-17T11:22:27.831Z,13.07
2018-05-17T11:24:56.034Z,13.53
2018-05-17T11:27:23.421Z,12.47
2018-05-17T11:29:50.833Z,14.07
2018-05-17T11:32:19.034Z,13.23
2018-05-17T11:34:47.229Z,14.20
2018-05-17T11:37:14.627Z,14.43
2018-05-17T11:39:43.404Z,13.05
2018-05-17T11:42:10.859Z,12.47
2018-05-17T11:44:39.052Z,12.50
2018-05-17T11:47:06.468Z,12.40
2018-05-17T11:49:33.885Z,11.87
2018-05-17T11:52:01.300Z,12.70
2018-05-17T11:54:28.829Z,11.30
2018-05-17T11:56:56.289Z,10.70
2018-05-17T11:59:23.716Z,10.67
2018-05-17T12:01:51.924Z,11.30
2018-05-17T12:04:20.102Z,10.40
2018-05-17T12:06:48.292Z,10.30
2018-05-17T12:09:16.489Z,11.00
2018-05-17T12:11:43.925Z,10.57
2018-05-17T12:14:11.348Z,11.50
2018-05-17T12:16:38.807Z,11.43
2018-05-17T12:19:06.212Z,11.60
2018-05-17T12:21:33.747Z,11.37
2018-05-17T12:24:01.168Z,10.30
2018-05-17T12:26:28.585Z,10.70
2018-05-17T12:28:56.068Z,11.47
2018-05-17T12:31:23.519Z,10.63
2018-05-17T12:33:51.846Z,11.33
2018-05-17T12:36:19.227Z,11.13
2018-05-17T12:38:46.770Z,10.30
2018-05-17T12:41:14.209Z,10.07
2018-05-17T12:43:41.684Z,10.03
2018-05-17T12:46:09.090Z,8.93
2018-05-17T12:48:36.518Z,10.30
2018-05-17T12:51:04.093Z,10.00
2018-05-17T12:53:32.261Z,9.57
2018-05-17T12:56:00.449Z,8.93
2018-05-17T12:58:28.694Z,9.90
2018-05-17T13:00:56.818Z,9.77
2018-05-17T13:03:25.005Z,8.60
2018-05-17T13:05:52.425Z,10.60
2018-05-17T13:08:19.957Z,9.47
2018-05-17T13:10:47.401Z,9.97
2018-05-17T13:13:15.618Z,8.50
2018-05-17T13:15:44.613Z,9.00
2018-05-17T13:18:13.758Z,7.90
2018-05-17T13:20:41.182Z,8.03
2018-05-17T13:23:09.390Z,8.20
2018-05-17T13:25:36.796Z,8.87
2018-05-17T13:28:04.331Z,8.87
2018-05-17T13:30:31.795Z,8.50
2018-05-17T13:32:59.959Z,9.13
2018-05-17T13:35:28.265Z,8.97
2018-05-17T13:37:56.419Z,9.23
2018-05-17T13:40:24.636Z,9.47
2018-05-17T13:42:52.050Z,8.30
2018-05-17T13:45:19.488Z,8.87
2018-05-17T13:47:46.998Z,8.70
2018-05-17T13:50:14.410Z,8.03
2018-05-17T13:52:41.816Z,9.10
2018-05-17T13:55:09.252Z,8.23
2018-05-17T13:57:36.681Z,8.90
2018-05-17T14:00:04.852Z,8.50
2018-05-17T14:02:32.438Z,8.97
2018-05-17T14:04:59.751Z,8.10
2018-05-17T14:07:27.199Z,10.20
2018-05-17T14:09:54.604Z,8.80
2018-05-17T14:12:22.020Z,9.47
2018-05-17T14:14:50.321Z,8.40
2018-05-17T14:17:17.800Z,8.70
2018-05-17T14:19:45.212Z,8.10
2018-05-17T14:22:12.655Z,8.10
2018-05-17T14:24:40.075Z,8.80
2018-05-17T14:27:08.250Z,8.13
2018-05-17T14:29:35.706Z,9.90
2018-05-17T14:32:03.081Z,8.73
2018-05-17T14:34:30.497Z,8.43
2018-05-17T14:36:57.921Z,8.50
2018-05-17T14:39:25.365Z,8.70
2018-05-17T14:41:52.788Z,9.00
2018-05-17T14:44:20.267Z,9.27
2018-05-17T14:46:48.468Z,9.50
2018-05-17T14:49:15.937Z,9.80
2018-05-17T14:51:43.387Z,9.57
2018-05-17T14:54:11.552Z,9.60
2018-05-17T14:56:39.737Z,10.33
2018-05-17T14:59:07.916Z,10.80
2018-05-17T15:01:35.413Z,9.80
2018-05-17T15:04:02.884Z,9.47
2018-05-17T15:06:30.373Z,9.97
2018-05-17T15:08:57.772Z,9.60
2018-05-17T15:11:25.306Z,9.23
2018-05-17T15:13:52.689Z,9.07
2018-05-17T15:16:20.803Z,10.30
2018-05-17T15:18:48.312Z,9.67
2018-05-17T15:21:16.027Z,9.80
2018-05-17T15:23:43.421Z,9.17
2018-05-17T15:26:10.839Z,9.17
2018-05-17T15:28:38.251Z,9.70
2018-05-17T15:31:05.672Z,9.50
2018-05-17T15:33:33.103Z,8.97
2018-05-17T15:36:01.292Z,8.75
2018-05-17T15:38:29.471Z,9.43
2018-05-17T15:40:57.681Z,9.30
2018-05-17T15:43:25.100Z,9.53
2018-05-17T15:45:52.738Z,9.60
2018-05-17T15:48:20.930Z,9.30
2018-05-17T15:50:48.488Z,8.60
2018-05-17T15:53:16.657Z,8.27
2018-05-17T15:55:44.110Z,9.37
2018-05-17T15:58:11.609Z,8.90
2018-05-17T16:00:39.021Z,8.47
2018-05-17T16:03:06.453Z,8.80
2018-05-17T16:05:33.914Z,8.33
2018-05-17T16:08:02.103Z,10.27
2018-05-17T16:10:29.533Z,10.20
2018-05-17T16:12:56.945Z,9.20
2018-05-17T16:15:24.523Z,10.33
2018-05-17T16:17:52.578Z,10.87
2018-05-17T16:20:20.769Z,11.10
2018-05-17T16:22:48.248Z,11.00
2018-05-17T16:25:17.156Z,10.07
2018-05-17T16:27:44.664Z,9.63
2018-05-17T16:30:12.140Z,10.20
2018-05-17T16:32:39.562Z,11.20
2018-05-17T16:35:07.032Z,9.60
2018-05-17T16:37:35.192Z,10.07
2018-05-17T16:40:02.681Z,10.27
2018-05-17T16:42:30.122Z,9.23
2018-05-17T16:44:58.296Z,9.40
2018-05-17T16:47:25.725Z,10.77
2018-05-17T16:49:53.148Z,9.67
2018-05-17T16:52:21.376Z,9.40
2018-05-17T16:54:48.832Z,10.10
2018-05-17T16:57:17.540Z,10.98
2018-05-17T16:59:44.994Z,9.83
2018-05-17T17:02:12.457Z,11.10
2018-05-17T17:04:39.935Z,11.30
2018-05-17T17:07:07.315Z,12.27
2018-05-17T17:09:34.718Z,10.50
2018-05-17T17:12:02.135Z,11.03
2018-05-17T17:14:29.708Z,11.60
2018-05-17T17:16:57.893Z,10.50
2018-05-17T17:19:25.319Z,11.50
2018-05-17T17:21:52.830Z,11.73
2018-05-17T17:24:20.253Z,11.90
2018-05-17T17:26:47.771Z,11.10
2018-05-17T17:29:15.241Z,11.93
2018-05-17T17:31:43.532Z,10.70
2018-05-17T17:34:11.063Z,10.90
2018-05-17T17:36:38.572Z,11.47
2018-05-17T17:39:05.928Z,10.40
2018-05-17T17:41:33.364Z,10.20
2018-05-17T17:44:01.553Z,10.70
2018-05-17T17:46:29.734Z,11.23
2018-05-17T17:48:57.164Z,10.60
2018-05-17T17:51:24.617Z,10.57
2018-05-17T17:53:52.073Z,10.20
2018-05-17T17:56:19.502Z,16.30
2018-05-17T17:58:48.428Z,11.02
2018-05-17T18:01:17.549Z,10.00
2018-05-17T18:03:44.973Z,10.00
2018-05-17T18:06:12.400Z,10.37
2018-05-17T18:08:39.840Z,10.80
2018-05-17T18:11:08.040Z,11.50
2018-05-17T18:13:35.456Z,10.88
2018-05-17T18:16:02.884Z,10.43
2018-05-17T18:18:30.354Z,11.05
2018-05-17T18:20:57.788Z,10.00
2018-05-17T18:23:25.204Z,10.73
2018-05-17T18:25:53.438Z,11.73
2018-05-17T18:28:20.848Z,10.97
2018-05-17T18:30:48.269Z,11.53
2018-05-17T18:33:15.697Z,10.37
2018-05-17T18:35:43.116Z,10.93
2018-05-17T18:38:11.313Z,10.27
2018-05-17T18:40:39.500Z,11.00
2018-05-17T18:43:07.733Z,11.63
2018-05-17T18:45:35.142Z,11.70
2018-05-17T18:48:02.570Z,10.60
2018-05-17T18:50:30.013Z,11.60
2018-05-17T18:52:57.441Z,10.83
2018-05-17T18:55:24.860Z,10.70
2018-05-17T18:57:52.402Z,10.93
2018-05-17T19:00:19.924Z,10.33
2018-05-17T19:02:47.362Z,10.30
2018-05-17T19:05:15.531Z,10.50
2018-05-17T19:07:43.712Z,9.70
2018-05-17T19:10:11.890Z,9.80
2018-05-17T19:12:40.095Z,9.80
2018-05-17T19:15:07.541Z,10.70
2018-05-17T19:17:35.795Z,11.00
2018-05-17T19:20:03.205Z,10.23
2018-05-17T19:22:31.400Z,10.90
2018-05-17T19:24:59.599Z,10.30
2018-05-17T19:27:27.025Z,10.30
2018-05-17T19:29:54.458Z,10.17
2018-05-17T19:32:21.881Z,10.23
2018-05-17T19:34:50.092Z,10.40
2018-05-17T19:37:17.697Z,10.63
2018-05-17T19:39:45.006Z,10.33
2018-05-17T19:42:13.210Z,10.30
2018-05-17T19:44:40.684Z,10.67
2018-05-17T19:47:08.152Z,10.43
2018-05-17T19:49:35.562Z,10.60
2018-05-17T19:52:03.083Z,10.37
2018-05-17T19:54:30.502Z,10.20
2018-05-17T19:56:57.921Z,10.77
2018-05-17T19:59:25.436Z,9.00
2018-05-17T20:01:52.871Z,9.20
2018-05-17T20:04:20.316Z,9.47
2018-05-17T20:06:49.436Z,10.10
2018-05-17T20:09:16.872Z,9.07
2018-05-17T20:11:44.382Z,9.80
2018-05-17T20:14:11.805Z,10.10
2018-05-17T20:16:39.245Z,9.47
2018-05-17T20:19:06.651Z,9.20
2018-05-17T20:21:34.845Z,10.10
2018-05-17T20:24:03.069Z,9.70
2018-05-17T20:26:30.480Z,9.10
2018-05-17T20:28:58.712Z,9.87
2018-05-17T20:31:26.129Z,9.00
2018-05-17T20:33:53.563Z,8.90
2018-05-17T20:36:20.976Z,8.70
2018-05-17T20:38:48.424Z,8.73
2018-05-17T20:41:15.877Z,8.13
2018-05-17T20:43:43.306Z,8.97
2018-05-17T20:46:11.491Z,7.93
2018-05-17T20:48:38.921Z,8.63
2018-05-17T20:51:06.336Z,8.80
2018-05-17T20:53:33.757Z,9.27
2018-05-17T20:56:01.284Z,8.60
2018-05-17T20:58:28.694Z,8.37
2018-05-17T21:00:56.368Z,8.67
2018-05-17T21:03:23.782Z,9.07
2018-05-17T21:05:51.267Z,9.00
2018-05-17T21:08:18.715Z,8.47
2018-05-17T21:10:46.957Z,9.13
2018-05-17T21:13:14.388Z,8.77
2018-05-17T21:15:41.821Z,8.27
2018-05-17T21:18:10.045Z,8.20
2018-05-17T21:20:37.512Z,8.70
2018-05-17T21:23:04.932Z,9.37
2018-05-17T21:25:32.352Z,8.40
2018-05-17T21:27:59.780Z,7.97
2018-05-17T21:30:27.997Z,8.43
2018-05-17T21:32:56.193Z,8.43
2018-05-17T21:35:23.656Z,7.90
2018-05-17T21:37:51.076Z,7.30
2018-05-17T21:40:18.605Z,8.20
2018-05-17T21:42:46.028Z,7.80
2018-05-17T21:45:13.459Z,7.57
2018-05-17T21:47:40.883Z,7.70
2018-05-17T21:50:09.064Z,7.67
2018-05-17T21:52:37.255Z,7.97
2018-05-17T21:55:04.676Z,7.70
2018-05-17T21:57:32.102Z,7.90
2018-05-17T21:59:59.582Z,7.50
2018-05-17T22:02:26.996Z,8.07
2018-05-17T22:04:54.436Z,7.37
2018-05-17T22:07:21.840Z,7.13
2018-05-17T22:09:50.988Z,7.50
2018-05-17T22:12:18.429Z,8.30
2018-05-17T22:14:46.613Z,7.27
2018-05-17T22:17:15.369Z,7.97
2018-05-17T22:19:42.812Z,7.30
2018-05-17T22:22:10.299Z,7.27
2018-05-17T22:24:37.708Z,7.53
2018-05-17T22:27:05.898Z,9.37
2018-05-17T22:29:33.355Z,7.00
2018-05-17T22:32:00.778Z,8.10
2018-05-17T22:34:28.237Z,7.43
2018-05-17T22:36:55.707Z,8.30
2018-05-17T22:39:23.124Z,7.53
2018-05-17T22:41:51.225Z,7.93
2018-05-17T22:44:19.429Z,7.70
2018-05-17T22:46:47.669Z,7.87
2018-05-17T22:49:15.113Z,9.20
2018-05-17T22:51:42.657Z,7.40
2018-05-17T22:54:09.996Z,8.67
2018-05-17T22:56:49.279Z,7.50
2018-05-17T22:59:16.705Z,7.40
2018-05-17T23:01:44.121Z,8.63
2018-05-17T23:04:11.536Z,7.63
2018-05-17T23:06:38.990Z,8.63
2018-05-17T23:09:06.364Z,8.50
2018-05-17T23:11:33.791Z,7.40
2018-05-17T23:14:01.201Z,7.17
2018-05-17T23:16:28.624Z,7.97
2018-05-17T23:18:56.038Z,7.93
2018-05-17T23:21:23.574Z,7.73
2018-05-17T23:23:52.536Z,8.30
2018-05-17T23:26:21.657Z,8.90
2018-05-17T23:28:49.836Z,8.03
2018-05-17T23:31:18.019Z,9.03
2018-05-17T23:33:45.437Z,9.57
2018-05-17T23:36:12.868Z,8.90
2018-05-17T23:38:41.045Z,8.90
2018-05-17T23:41:20.919Z,9.50
2018-05-17T23:43:48.346Z,9.07
2018-05-17T23:46:15.878Z,9.77
2018-05-17T23:48:43.291Z,10.00
2018-05-17T23:51:11.498Z,9.13
2018-05-17T23:53:39.660Z,8.50
2018-05-17T23:56:07.089Z,8.43
2018-05-17T23:58:34.504Z,8.70
